Aérodrome :
LOGIN :

S'inscrire | Disclaimer

   EN    FR    IT 

 










Légende :    VFR   VFR Marginal   IFR   IFR Intensif   IFR Très Intensif
Visi : 
Plafond : 
>= 8 km
>= 3000ft
5 à 8 km
1000 à 3000 ft
1500m à 5 km
500 à 1000 ft
800 à 1500m
200 à 500 ft
< 800m
< 200 ft
Symboles :   Orages  Brouillard  Fortes neiges  Fortes précipitations  Vent > 20 kt
SIGMETs :   Divers  Orages  Givrage  Turbulence  Onde Orograph.  Cendres Volcan.






- Altitude de l'aérodrome : 586 ft
- Code IATA : IEV


UKKK - Zhuliany

DERNIER METAR :
  • 170130Z 20006G11MPS CAVOK 02/M02 Q1023 R26/190060 NOSIG

METARs EXPIRÉS :
  • 170100Z 20006MPS 160V230 CAVOK 02/M02 Q1024 R26/190060 NOSIG
  • 170030Z 20006MPS CAVOK 02/M02 Q1024 R26/190060 NOSIG
  • 170000Z 20006MPS 170V240 CAVOK 02/M02 Q1024 R26/190060 NOSIG
  • 162330Z 21006MPS 170V240 CAVOK 03/M02 Q1025 R26/190060 NOSIG
  • 162300Z 20006MPS CAVOK 03/M02 Q1025 R26/190060 NOSIG
  • 162230Z 20005MPS CAVOK 03/M02 Q1025 R26/190060 NOSIG

TAF TAF UKKK
Valide du 17 à 00h jusqu'au 18 à 00h UTC


162304Z 1700/1724 19006G11MPS 9999 BKN012 TX09/1712Z TN00/1705Z
TEMPO 1700/1706 21008G14MPS 2000 BR BKN007
TEMPO 1706/1715 20010G16MPS



MET'MAP, la Météo Aéronautique d'un coup d'oeil ! - Copyright ORBIFLY Décembre 2007 - Disclaimer

ORBIFLY MET'MAP TEAM :

Programmation & Développement : Alexandra Zaïnal
Sur une idée originale de : Baudouin d'Aumeries
Assistance à la programmation : Marc-Olivier Méhu
Soutien technique & logistique : Manuel Goepfert

Contact : metmap@orbifly.com




SOURCES & CREDITS :

   NOAA